Dutch Harbor, AK

3:39 PM AKDT on July 11, 2014 (GMT -0800)
Dutch Harbor (PADU) Elev 13 ft | 53.90 °N, 166.54 °W | Change Station

Current weather conditions updated 31 minutes ago

Overcast
Overcast
54 °F
Feels Like 54 °F
N
14
Wind Variable Wind from NW

Today is forecast to be nearly the same temperature as yesterday. Few showers.

Today
High -- | Low -- °F
--% Chance of Precip.
Yesterday
High -- | Low -- °F
Precip. -- in
6:52 AM 11:33 PM
Full, 100% visible
Pressure 29.81 in
Visibility 10.0 miles
Clouds Scattered Clouds 600 ft
Scattered Clouds 1600 ft
Overcast 3200 ft
Dew Point 46 °F
Humidity 77%
Rainfall 0.00 in
Snow Depth Not available.
UV 3 out of 12
Pollen Not available.
Air Quality Not available.
Flu Activity Sporadic
SPECI PADU 112308Z 32012KT 10SM SCT006 SCT016 OVC032 12/08 A2981 RMK AO2 LWR STRATUS ON MTNS NE CS

More Conditions Fewer Conditions

Pressure 29.81 in
Visibility 10.0 miles
Clouds Scattered Clouds 600 ft
Scattered Clouds 1600 ft
Overcast 3200 ft
Dew Point 46 °F
Humidity 77%
Rainfall 0.00 in
Snow Depth Not available.
UV 3 out of 12
Pollen Not available.
Air Quality Not available.
Flu Activity Sporadic
SPECI PADU 112308Z 32012KT 10SM SCT006 SCT016 OVC032 12/08 A2981 RMK AO2 LWR STRATUS ON MTNS NE CS

More Conditions Fewer Conditions

10-Day Weather Forecast

Almanac

Astronomy

Jul. 11, 2014 Rise Set
Actual Time 6:52 AM AKDT 11:33 PM AKDT
Civil Twilight 6:02 AM AKDT 12:22 AM AKDT
Nautical Twilight 4:41 AM AKDT 1:43 AM AKDT
Astronomical Twilight Sun does not rise Sun does not rise
Moon 10:40 PM AKDT 6:30 AM AKDT
Length of Visible Light 18h 20m
Length of Day
16h 40m
Tomorrow will be 2m 11s shorter.
Full, 100% of the Moon is Illuminated
Today
Full
Jul 12
Full
Jul 18
Last Quarter
Jul 26
New
Aug 3
First Quarter

Today's Extremes

State Highs State Lows

Community

WunderPhotos

Upload Photos

1,732,586 photos uploaded!

WunderBlogs® & News

Nearby

Snow Depth

Station Depth Elevation
Port Graham 0 in 300 ft
Mcneil Canyon 1 in 1320 ft
MF Bradley River 22 in 2300 ft
Nuka Glacier 1 in 1250 ft
Rocky Point 2 in 500 ft

Earthquake Activity

City Distance Mag. Time & Date
No recent earthquake activity has been reported nearby.
Minimum magnitude displayed is 2.5.

Coastal Water Temperatures

Place Temperature
No Stations Reporting

Nearby Weather Stations

There are no personal weather stations in this area.